createdAt,value
2022-11-02T00:02:19.530Z,97932.81
2022-11-02T00:04:47.950Z,97930.16
2022-11-02T00:07:16.146Z,97926.56
2022-11-02T00:09:45.033Z,97933.94
2022-11-02T00:12:13.804Z,97926.81
2022-11-02T00:14:42.118Z,97926.88
2022-11-02T00:17:10.310Z,97922.66
2022-11-02T00:19:38.584Z,97920.09
2022-11-02T00:22:06.879Z,97920.88
2022-11-02T00:24:35.132Z,97919.06
2022-11-02T00:27:03.458Z,97924.31
2022-11-02T00:29:34.016Z,97918.91
2022-11-02T00:32:02.572Z,97924.47
2022-11-02T00:34:30.844Z,97924.16
2022-11-02T00:36:59.213Z,97923.66
2022-11-02T00:39:28.717Z,97916.91
2022-11-02T00:41:57.000Z,97920.28
2022-11-02T00:44:25.353Z,97909.16
2022-11-02T00:46:54.237Z,97907.00
2022-11-02T00:49:23.192Z,97913.56
2022-11-02T00:51:52.006Z,97913.13
2022-11-02T00:54:24.477Z,97911.75
2022-11-02T00:56:56.869Z,97902.25
2022-11-02T00:59:25.259Z,97901.88
2022-11-02T01:01:57.445Z,97907.22
2022-11-02T01:04:25.913Z,97900.84
2022-11-02T01:06:54.232Z,97907.31
2022-11-02T01:09:22.578Z,97890.94
2022-11-02T01:11:51.897Z,97897.09
2022-11-02T01:14:20.673Z,97900.22
2022-11-02T01:16:48.945Z,97896.66
2022-11-02T01:19:17.268Z,97893.34
2022-11-02T01:21:45.619Z,97898.31
2022-11-02T01:24:14.026Z,97892.16
2022-11-02T01:26:42.302Z,97891.09
2022-11-02T01:29:12.603Z,97889.41
2022-11-02T01:31:40.855Z,97888.69
2022-11-02T01:34:09.092Z,97886.72
2022-11-02T01:36:37.993Z,97886.53
2022-11-02T01:39:06.982Z,97879.00
2022-11-02T01:41:35.294Z,97871.44
2022-11-02T01:44:04.076Z,97879.94
2022-11-02T01:46:37.087Z,97885.44
2022-11-02T01:49:11.030Z,97885.25
2022-11-02T01:51:43.309Z,97884.09
2022-11-02T01:54:14.604Z,97878.22
2022-11-02T01:56:42.892Z,97885.84
2022-11-02T01:59:16.032Z,97881.78
2022-11-02T02:01:44.423Z,97877.03
2022-11-02T02:04:13.069Z,97878.31
2022-11-02T02:06:41.734Z,97873.59
2022-11-02T02:09:10.492Z,97876.28
2022-11-02T02:11:40.964Z,97875.22
2022-11-02T02:14:13.800Z,97873.53
2022-11-02T02:17:06.346Z,97869.41
2022-11-02T02:19:58.650Z,97857.72
2022-11-02T02:22:56.253Z,97861.75
2022-11-02T02:26:02.301Z,97864.00
2022-11-02T02:28:40.163Z,97849.34
2022-11-02T02:31:32.018Z,97856.13
2022-11-02T02:34:21.883Z,97860.97
2022-11-02T02:37:10.797Z,97852.78
2022-11-02T02:40:03.977Z,97852.53
2022-11-02T02:42:47.645Z,97857.38
2022-11-02T02:45:33.983Z,97866.94
2022-11-02T02:48:05.503Z,97866.91
2022-11-02T02:50:41.424Z,97867.94
2022-11-02T02:53:10.292Z,97869.47
2022-11-02T02:55:41.921Z,97867.34
2022-11-02T02:58:17.112Z,97873.09
2022-11-02T03:00:45.718Z,97884.38
2022-11-02T03:03:18.144Z,97880.50
2022-11-02T03:06:01.445Z,97886.75
2022-11-02T03:08:29.775Z,97881.13
2022-11-02T03:11:14.901Z,97879.41
2022-11-02T03:13:57.172Z,97882.81
2022-11-02T03:16:28.221Z,97875.63
2022-11-02T03:19:05.746Z,97879.75
2022-11-02T03:21:42.997Z,97883.09
2022-11-02T03:24:22.429Z,97881.88
2022-11-02T03:27:13.306Z,97881.91
2022-11-02T03:29:56.610Z,97868.59
2022-11-02T03:32:42.579Z,97867.53
2022-11-02T03:35:19.402Z,97869.13
2022-11-02T03:38:01.958Z,97870.84
2022-11-02T03:40:33.511Z,97864.56
2022-11-02T03:43:01.793Z,97866.81
2022-11-02T03:45:33.467Z,97863.16
2022-11-02T03:48:04.754Z,97862.13
2022-11-02T03:50:33.382Z,97867.75
2022-11-02T03:53:08.249Z,97860.38
2022-11-02T03:55:38.432Z,97853.94
2022-11-02T03:58:07.392Z,97857.19
2022-11-02T04:00:37.160Z,97870.94
2022-11-02T04:03:10.068Z,97863.06
2022-11-02T04:05:43.212Z,97869.63
2022-11-02T04:08:44.912Z,97866.03
2022-11-02T04:11:32.001Z,97859.53
2022-11-02T04:14:24.997Z,97871.59
2022-11-02T04:17:16.868Z,97861.47
2022-11-02T04:19:51.334Z,97862.56
2022-11-02T04:22:40.253Z,97860.81
2022-11-02T04:25:18.768Z,97862.97
2022-11-02T04:28:10.954Z,97864.44
2022-11-02T04:30:45.519Z,97860.09
2022-11-02T04:33:32.762Z,97864.88
2022-11-02T04:36:12.619Z,97857.34
2022-11-02T04:38:42.551Z,97860.44
2022-11-02T04:41:38.709Z,97857.19
2022-11-02T04:44:11.714Z,97854.97
2022-11-02T04:46:41.275Z,97851.97
2022-11-02T04:49:11.249Z,97851.03
2022-11-02T04:51:43.335Z,97852.03
2022-11-02T04:54:14.018Z,97858.50
2022-11-02T04:56:42.754Z,97862.00
2022-11-02T04:59:11.200Z,97859.88
2022-11-02T05:01:40.177Z,97855.19
2022-11-02T05:04:10.008Z,97863.72
2022-11-02T05:06:38.659Z,97859.66
2022-11-02T05:09:07.033Z,97862.22
2022-11-02T05:11:35.467Z,97869.56
2022-11-02T05:14:03.911Z,97873.09
2022-11-02T05:16:33.367Z,97879.28
2022-11-02T05:19:04.544Z,97887.72
2022-11-02T05:21:35.473Z,97886.59
2022-11-02T05:24:05.263Z,97896.13
2022-11-02T05:26:35.014Z,97888.66
2022-11-02T05:29:05.233Z,97890.97
2022-11-02T05:31:35.239Z,97895.75
2022-11-02T05:34:03.728Z,97897.84
2022-11-02T05:36:32.633Z,97904.19
2022-11-02T05:39:01.547Z,97901.88
2022-11-02T05:41:30.193Z,97901.22
2022-11-02T05:44:00.525Z,97899.41
2022-11-02T05:46:31.466Z,97901.16
2022-11-02T05:48:59.822Z,97897.59
2022-11-02T05:51:28.179Z,97907.03
2022-11-02T05:53:56.464Z,97899.06
2022-11-02T05:56:25.329Z,97911.72
2022-11-02T05:58:56.646Z,97913.81
2022-11-02T06:01:24.974Z,97911.44
2022-11-02T06:03:53.944Z,97911.97
2022-11-02T06:06:23.662Z,97914.34
2022-11-02T06:08:52.658Z,97913.34
2022-11-02T06:11:21.632Z,97914.06
2022-11-02T06:13:51.132Z,97903.69
2022-11-02T06:16:23.084Z,97908.84
2022-11-02T06:18:52.045Z,97917.63
2022-11-02T06:21:20.383Z,97914.34
2022-11-02T06:23:48.897Z,97909.00
2022-11-02T06:26:17.368Z,97920.31
2022-11-02T06:28:45.698Z,97913.31
2022-11-02T06:31:17.595Z,97921.31
2022-11-02T06:33:46.079Z,97919.84
2022-11-02T06:36:14.498Z,97917.34
2022-11-02T06:38:43.563Z,97919.97
2022-11-02T06:41:11.856Z,97924.97
2022-11-02T06:43:41.284Z,97919.97
2022-11-02T06:46:09.589Z,97920.41
2022-11-02T06:48:37.881Z,97924.34
2022-11-02T06:51:06.781Z,97930.81
2022-11-02T06:53:35.242Z,97926.28
2022-11-02T06:56:03.620Z,97919.69
2022-11-02T06:58:32.716Z,97914.66
2022-11-02T07:01:04.576Z,97910.66
2022-11-02T07:03:33.135Z,97914.19
2022-11-02T07:06:01.505Z,97903.41
2022-11-02T07:08:29.900Z,97903.16
2022-11-02T07:10:59.057Z,97904.41
2022-11-02T07:13:27.965Z,97897.03
2022-11-02T07:15:56.959Z,97904.13
2022-11-02T07:18:25.345Z,97902.81
2022-11-02T07:20:53.602Z,97896.03
2022-11-02T07:23:24.338Z,97891.31
2022-11-02T07:25:53.194Z,97897.69
2022-11-02T07:28:21.641Z,97886.09
2022-11-02T07:30:50.346Z,97890.56
2022-11-02T07:33:18.609Z,97878.25
2022-11-02T07:35:46.976Z,97877.53
2022-11-02T07:38:15.312Z,97885.41
2022-11-02T07:40:43.627Z,97882.97
2022-11-02T07:43:15.492Z,97886.22
2022-11-02T07:45:56.619Z,97878.56
2022-11-02T07:48:25.045Z,97872.41
2022-11-02T07:50:53.681Z,97874.00
2022-11-02T07:53:21.976Z,97865.53
2022-11-02T07:55:50.360Z,97878.06
2022-11-02T07:58:18.688Z,97870.72
2022-11-02T08:00:47.150Z,97869.25
2022-11-02T08:03:16.327Z,97866.16
2022-11-02T08:05:44.874Z,97869.91
2022-11-02T08:08:18.498Z,97862.91
2022-11-02T08:10:48.754Z,97859.28
2022-11-02T08:13:21.960Z,97864.09
2022-11-02T08:15:54.034Z,97854.31
2022-11-02T08:18:26.215Z,97860.56
2022-11-02T08:20:58.027Z,97850.69
2022-11-02T08:23:27.893Z,97846.00
2022-11-02T08:25:59.192Z,97845.38
2022-11-02T08:28:30.714Z,97837.28
2022-11-02T08:31:00.225Z,97845.72
2022-11-02T08:33:28.554Z,97838.56
2022-11-02T08:36:01.337Z,97836.66
2022-11-02T08:38:29.735Z,97831.56
2022-11-02T08:40:58.830Z,97839.00
2022-11-02T08:43:27.191Z,97830.91
2022-11-02T08:46:14.348Z,97834.94
2022-11-02T08:48:43.630Z,97825.91
2022-11-02T08:51:11.992Z,97840.38
2022-11-02T08:53:41.221Z,97830.66
2022-11-02T08:56:09.467Z,97836.78
2022-11-02T08:58:37.796Z,97832.38
2022-11-02T09:01:06.334Z,97833.78
2022-11-02T09:03:34.685Z,97836.09
2022-11-02T09:06:03.627Z,97840.84
2022-11-02T09:08:33.386Z,97844.56
2022-11-02T09:11:02.769Z,97836.69
2022-11-02T09:13:31.206Z,97828.53
2022-11-02T09:15:59.982Z,97835.34
2022-11-02T09:18:28.433Z,97826.06
2022-11-02T09:20:56.886Z,97826.72
2022-11-02T09:23:25.246Z,97825.16
2022-11-02T09:25:54.063Z,97815.22
2022-11-02T09:28:22.400Z,97822.16
2022-11-02T09:30:50.777Z,97825.31
2022-11-02T09:33:19.181Z,97817.00
2022-11-02T09:35:48.568Z,97807.84
2022-11-02T09:38:18.708Z,97799.78
2022-11-02T09:40:59.200Z,97807.13
2022-11-02T09:43:51.286Z,97803.34
2022-11-02T09:46:40.738Z,97789.41
2022-11-02T09:49:23.136Z,97790.50
2022-11-02T09:51:58.403Z,97783.22
2022-11-02T09:54:26.861Z,97785.09
2022-11-02T09:57:00.095Z,97776.38
2022-11-02T09:59:28.525Z,97769.53
2022-11-02T10:02:20.107Z,97776.63
2022-11-02T10:05:09.946Z,97778.25
2022-11-02T10:08:14.408Z,97770.06
2022-11-02T10:10:53.840Z,97763.13
2022-11-02T10:13:40.827Z,97763.16
2022-11-02T10:16:34.134Z,97757.13
2022-11-02T10:19:02.536Z,97757.50
2022-11-02T10:21:37.387Z,97745.03
2022-11-02T10:24:32.256Z,97751.50
2022-11-02T10:27:01.547Z,97743.84
2022-11-02T10:29:54.801Z,97743.25
2022-11-02T10:32:23.247Z,97739.94
2022-11-02T10:34:59.052Z,97739.06
2022-11-02T10:38:27.494Z,97731.13
2022-11-02T10:41:21.658Z,97732.88
2022-11-02T10:44:21.001Z,97732.19
2022-11-02T10:46:57.912Z,97726.16
2022-11-02T10:49:34.634Z,97731.28
2022-11-02T10:52:04.350Z,97719.66
2022-11-02T10:54:34.545Z,97715.91
2022-11-02T10:57:15.087Z,97710.25
2022-11-02T10:59:43.402Z,97717.00
2022-11-02T11:02:15.133Z,97719.88
2022-11-02T11:04:44.062Z,97706.19
2022-11-02T11:07:18.073Z,97695.94
2022-11-02T11:09:49.175Z,97693.19
2022-11-02T11:12:31.137Z,97692.19
2022-11-02T11:20:39.546Z,97686.25
2022-11-02T11:23:20.326Z,97686.91
2022-11-02T11:25:59.670Z,97684.56
2022-11-02T11:28:30.637Z,97681.22
2022-11-02T11:31:23.528Z,97672.78
2022-11-02T11:33:52.663Z,97665.38
2022-11-02T11:38:57.085Z,97663.03
2022-11-02T11:41:25.525Z,97659.25
2022-11-02T11:43:53.876Z,97649.72
2022-11-02T11:46:22.275Z,97658.31
2022-11-02T11:48:54.932Z,97656.28
2022-11-02T11:51:34.992Z,97657.34
2022-11-02T11:54:07.310Z,97645.66
2022-11-02T11:56:36.212Z,97647.34
2022-11-02T11:59:05.103Z,97640.84
2022-11-02T12:01:40.469Z,97638.38
2022-11-02T12:04:08.896Z,97633.06
2022-11-02T12:06:46.502Z,97622.66
2022-11-02T12:09:23.758Z,97624.44
2022-11-02T12:12:06.925Z,97617.53
2022-11-02T12:17:55.775Z,97618.22
2022-11-02T12:21:09.020Z,97610.69
2022-11-02T12:24:02.188Z,97605.91
2022-11-02T12:26:31.010Z,97605.75
2022-11-02T12:29:17.707Z,97603.53
2022-11-02T12:31:48.321Z,97604.59
2022-11-02T12:34:35.061Z,97598.22
2022-11-02T12:37:41.206Z,97595.19
2022-11-02T12:40:11.593Z,97593.13
2022-11-02T12:43:15.944Z,97589.97
2022-11-02T12:45:55.203Z,97586.44
2022-11-02T12:48:39.744Z,97586.59
2022-11-02T12:51:12.579Z,97589.50
2022-11-02T12:53:47.932Z,97588.09
2022-11-02T12:56:27.364Z,97576.81
2022-11-02T12:58:55.881Z,97582.41
2022-11-02T13:01:53.107Z,97583.94
2022-11-02T13:04:30.424Z,97576.97
2022-11-02T13:07:13.383Z,97569.88
2022-11-02T13:10:19.206Z,97575.72
2022-11-02T13:12:53.010Z,97574.22
2022-11-02T13:15:23.101Z,97572.59
2022-11-02T13:17:56.240Z,97563.22
2022-11-02T13:20:33.475Z,97571.47
2022-11-02T13:23:04.922Z,97577.50
2022-11-02T13:25:42.724Z,97570.59
2022-11-02T13:28:43.848Z,97569.56
2022-11-02T13:31:15.917Z,97567.41
2022-11-02T13:33:47.320Z,97566.03
2022-11-02T13:36:16.320Z,97565.50
2022-11-02T13:38:54.275Z,97566.06
2022-11-02T13:41:53.240Z,97570.38
2022-11-02T13:44:58.742Z,97564.63
2022-11-02T13:47:55.602Z,97565.09
2022-11-02T13:50:24.639Z,97565.63
2022-11-02T13:52:56.700Z,97568.31
2022-11-02T13:55:46.557Z,97553.88
2022-11-02T13:58:36.390Z,97556.19
2022-11-02T14:01:06.443Z,97547.84
2022-11-02T14:03:50.166Z,97557.00
2022-11-02T14:06:20.923Z,97557.97
2022-11-02T14:09:08.609Z,97558.00
2022-11-02T14:11:42.926Z,97551.22
2022-11-02T14:14:11.772Z,97554.97
2022-11-02T14:16:43.263Z,97559.16
2022-11-02T14:19:32.384Z,97559.09
2022-11-02T14:22:00.749Z,97569.00
2022-11-02T14:24:34.720Z,97558.22
2022-11-02T14:27:19.398Z,97566.97
2022-11-02T14:29:47.813Z,97567.81
2022-11-02T14:32:34.940Z,97557.94
2022-11-02T14:35:37.823Z,97562.63
2022-11-02T14:38:44.106Z,97574.59
2022-11-02T14:41:50.547Z,97571.50
2022-11-02T14:44:18.846Z,97574.53
2022-11-02T14:47:11.005Z,97576.25
2022-11-02T14:49:56.712Z,97574.47
2022-11-02T14:52:28.440Z,97572.66
2022-11-02T14:55:01.135Z,97570.56
2022-11-02T14:57:36.688Z,97577.06
2022-11-02T15:00:26.843Z,97580.94
2022-11-02T15:02:55.132Z,97586.56
2022-11-02T15:05:29.352Z,97588.31
2022-11-02T15:08:00.096Z,97589.03
2022-11-02T15:10:31.412Z,97600.41
2022-11-02T15:13:24.245Z,97596.19
2022-11-02T15:16:12.456Z,97594.50
2022-11-02T15:18:40.882Z,97597.59
2022-11-02T15:21:12.401Z,97604.78
2022-11-02T15:23:56.230Z,97604.53
2022-11-02T15:26:43.108Z,97601.34
2022-11-02T15:29:40.192Z,97613.63
2022-11-02T15:32:22.299Z,97615.69
2022-11-02T15:34:56.467Z,97615.06
2022-11-02T15:37:29.557Z,97614.88
2022-11-02T15:40:00.037Z,97617.03
2022-11-02T15:42:38.629Z,97628.16
2022-11-02T15:45:47.737Z,97634.16
2022-11-02T15:48:22.031Z,97637.38
2022-11-02T15:51:03.533Z,97645.63
2022-11-02T15:54:10.139Z,97651.25
2022-11-02T15:57:00.406Z,97652.25
2022-11-02T15:59:56.804Z,97652.13
2022-11-02T16:02:53.971Z,97659.81
2022-11-02T16:05:26.548Z,97672.03
2022-11-02T16:08:11.770Z,97670.53
2022-11-02T16:10:40.441Z,97669.81
2022-11-02T16:13:22.645Z,97669.38
2022-11-02T16:16:06.767Z,97677.50
2022-11-02T16:18:41.692Z,97687.84
2022-11-02T16:21:16.021Z,97681.94
2022-11-02T16:23:57.918Z,97686.63
2022-11-02T16:26:27.431Z,97690.56
2022-11-02T16:28:57.072Z,97687.41
2022-11-02T16:31:31.152Z,97689.03
2022-11-02T16:34:09.096Z,97694.22
2022-11-02T16:36:37.604Z,97697.63
2022-11-02T16:39:30.979Z,97687.94
2022-11-02T16:41:59.780Z,97690.56
2022-11-02T16:44:32.827Z,97704.53
2022-11-02T16:47:21.919Z,97700.72
2022-11-02T16:49:50.438Z,97707.22
2022-11-02T16:52:23.934Z,97714.53
2022-11-02T16:54:53.729Z,97718.91
2022-11-02T16:57:28.426Z,97713.84
2022-11-02T17:00:02.133Z,97720.72
2022-11-02T17:02:35.915Z,97730.28
2022-11-02T17:05:06.931Z,97720.78
2022-11-02T17:07:38.793Z,97724.91
2022-11-02T17:10:28.240Z,97711.13
2022-11-02T17:12:57.785Z,97721.31
2022-11-02T17:15:29.066Z,97717.19
2022-11-02T17:18:09.904Z,97715.28
2022-11-02T17:20:41.493Z,97726.78
2022-11-02T17:23:29.433Z,97728.59
2022-11-02T17:26:28.215Z,97728.56
2022-11-02T17:29:00.046Z,97729.09
2022-11-02T17:31:44.446Z,97721.56
2022-11-02T17:34:23.464Z,97716.31
2022-11-02T17:37:09.753Z,97721.69
2022-11-02T17:39:39.544Z,97727.22
2022-11-02T17:42:27.633Z,97723.69
2022-11-02T17:44:57.855Z,97724.84
2022-11-02T17:47:27.700Z,97731.59
2022-11-02T17:49:58.422Z,97732.19
2022-11-02T17:52:28.824Z,97737.03
2022-11-02T17:55:00.058Z,97741.00
2022-11-02T17:57:30.952Z,97734.69
2022-11-02T18:00:01.108Z,97735.28
2022-11-02T18:02:45.008Z,97737.47
2022-11-02T18:05:29.476Z,97730.81
2022-11-02T18:07:58.734Z,97732.06
2022-11-02T18:10:34.969Z,97731.59
2022-11-02T18:13:21.073Z,97736.41
2022-11-02T18:15:50.498Z,97733.75
2022-11-02T18:18:19.562Z,97741.28
2022-11-02T18:20:48.794Z,97741.69
2022-11-02T18:23:18.229Z,97742.88
2022-11-02T18:26:32.581Z,97746.50
2022-11-02T18:29:01.955Z,97742.25
2022-11-02T18:31:37.594Z,97742.06
2022-11-02T18:34:08.141Z,97740.97
2022-11-02T18:36:40.407Z,97732.56
2022-11-02T18:39:12.901Z,97744.88
2022-11-02T18:41:43.016Z,97740.63
2022-11-02T18:44:15.425Z,97733.97
2022-11-02T18:46:47.153Z,97736.25
2022-11-02T18:49:17.347Z,97737.44
2022-11-02T18:51:46.431Z,97742.47
2022-11-02T18:54:20.074Z,97743.25
2022-11-02T18:56:49.379Z,97738.06
2022-11-02T18:59:20.000Z,97746.31
2022-11-02T19:01:49.156Z,97736.75
2022-11-02T19:04:21.314Z,97739.19
2022-11-02T19:07:13.880Z,97750.53
2022-11-02T19:09:45.895Z,97749.75
2022-11-02T19:12:18.778Z,97754.78
2022-11-02T19:14:51.940Z,97758.88
2022-11-02T19:17:26.280Z,97756.31
2022-11-02T19:19:55.044Z,97754.38
2022-11-02T19:22:25.365Z,97756.22
2022-11-02T19:24:53.978Z,97756.56
2022-11-02T19:27:26.299Z,97761.69
2022-11-02T19:29:55.628Z,97757.63
2022-11-02T19:32:24.700Z,97752.00
2022-11-02T19:34:54.331Z,97756.72
2022-11-02T19:37:26.036Z,97764.63
2022-11-02T19:39:55.392Z,97753.00
2022-11-02T19:42:23.784Z,97757.38
2022-11-02T19:44:56.597Z,97767.75
2022-11-02T19:47:27.968Z,97765.63
2022-11-02T19:49:57.069Z,97763.66
2022-11-02T19:52:25.657Z,97764.78
2022-11-02T19:54:54.346Z,97767.22
2022-11-02T19:57:22.840Z,97768.19
2022-11-02T19:59:53.786Z,97775.44
2022-11-02T20:02:22.244Z,97773.25
2022-11-02T20:04:51.349Z,97771.16
2022-11-02T20:07:21.261Z,97778.22
2022-11-02T20:09:52.444Z,97781.41
2022-11-02T20:12:23.106Z,97780.09
2022-11-02T20:14:52.842Z,97776.03
2022-11-02T20:17:32.089Z,97779.00
2022-11-02T20:20:08.984Z,97772.66
2022-11-02T20:22:38.996Z,97776.19
2022-11-02T20:25:07.881Z,97783.22
2022-11-02T20:27:41.522Z,97786.19
2022-11-02T20:30:10.218Z,97779.50
2022-11-02T20:32:39.325Z,97781.19
2022-11-02T20:35:13.859Z,97780.53
2022-11-02T20:37:42.377Z,97780.44
2022-11-02T20:40:12.555Z,97781.19
2022-11-02T20:42:41.007Z,97776.00
2022-11-02T20:45:09.794Z,97776.25
2022-11-02T20:47:38.127Z,97784.34
2022-11-02T20:50:09.108Z,97788.16
2022-11-02T20:52:39.925Z,97789.34
2022-11-02T20:55:10.028Z,97793.03
2022-11-02T20:57:38.414Z,97788.56
2022-11-02T21:00:07.447Z,97794.69
2022-11-02T21:02:35.880Z,97783.97
2022-11-02T21:05:05.222Z,97778.06
2022-11-02T21:07:33.587Z,97783.25
2022-11-02T21:10:01.858Z,97773.50
2022-11-02T21:12:48.694Z,97786.94
2022-11-02T21:15:17.652Z,97784.88
2022-11-02T21:17:46.000Z,97782.69
2022-11-02T21:20:33.065Z,97783.59
2022-11-02T21:23:03.035Z,97777.13
2022-11-02T21:25:32.208Z,97779.63
2022-11-02T21:28:00.799Z,97763.56
2022-11-02T21:30:31.286Z,97776.94
2022-11-02T21:32:59.640Z,97785.88
2022-11-02T21:35:28.182Z,97772.47
2022-11-02T21:38:01.179Z,97771.56
2022-11-02T21:40:32.305Z,97774.75
2022-11-02T21:43:00.987Z,97781.91
2022-11-02T21:45:33.551Z,97777.00
2022-11-02T21:48:06.394Z,97783.00
2022-11-02T21:50:34.608Z,97781.25
2022-11-02T21:53:03.822Z,97788.47
2022-11-02T21:55:32.375Z,97777.53
2022-11-02T21:58:01.150Z,97792.97
2022-11-02T22:00:49.533Z,97783.91
2022-11-02T22:03:18.069Z,97784.72
2022-11-02T22:05:56.346Z,97790.88
2022-11-02T22:08:40.119Z,97797.13
2022-11-02T22:11:12.708Z,97795.94
2022-11-02T22:13:42.818Z,97801.03
2022-11-02T22:16:24.924Z,97797.97
2022-11-02T22:18:57.585Z,97799.53
2022-11-02T22:21:27.435Z,97800.28
2022-11-02T22:23:56.933Z,97807.16
2022-11-02T22:26:27.286Z,97814.34
2022-11-02T22:29:00.313Z,97805.59
2022-11-02T22:31:36.277Z,97805.00
2022-11-02T22:34:05.631Z,97798.75
2022-11-02T22:36:35.008Z,97801.97
2022-11-02T22:39:05.328Z,97810.28
2022-11-02T22:41:37.485Z,97802.25
2022-11-02T22:44:11.207Z,97800.66
2022-11-02T22:46:41.422Z,97811.69
2022-11-02T22:49:10.939Z,97802.63
2022-11-02T22:51:43.960Z,97816.75
2022-11-02T22:54:21.618Z,97803.31
2022-11-02T22:56:50.109Z,97805.59
2022-11-02T22:59:19.474Z,97808.84
2022-11-02T23:01:48.265Z,97809.06
2022-11-02T23:04:17.007Z,97817.41
2022-11-02T23:06:45.610Z,97821.59
2022-11-02T23:09:14.228Z,97821.72
2022-11-02T23:11:44.310Z,97823.19
2022-11-02T23:14:14.945Z,97822.16
2022-11-02T23:16:47.236Z,97819.03
2022-11-02T23:19:29.340Z,97824.31
2022-11-02T23:22:17.296Z,97830.84
2022-11-02T23:25:11.601Z,97835.34
2022-11-02T23:27:59.767Z,97838.84
2022-11-02T23:30:56.165Z,97853.97
2022-11-02T23:33:28.158Z,97842.00
2022-11-02T23:36:12.852Z,97847.66
2022-11-02T23:39:06.860Z,97853.63
2022-11-02T23:41:37.063Z,97851.50
2022-11-02T23:44:19.253Z,97861.94
2022-11-02T23:46:50.915Z,97859.09
2022-11-02T23:49:19.836Z,97860.59
2022-11-02T23:52:06.820Z,97865.13
2022-11-02T23:54:53.397Z,97868.25
2022-11-02T23:57:22.773Z,97865.09
2022-11-02T23:59:51.085Z,97871.69
